Time;durP1;ratioP1;P1;durP2;ratioP2;P2;SDS_P1;SDS_P2;PMS_P1;PMS_P2;Temp;Humidity;BMP_temperature;BMP_pressure;BME280_temperature;BME280_humidity;BME280_pressure;Samples;Min_cycle;Max_cycle;Signal;HPM_P1;HPM_P2
2023/11/30 00:02:14;;;;;;;9.97;6.87;;;3.50;99.90;;;;;;5029560;28;20262;-72
2023/11/30 00:04:40;;;;;;;9.70;5.43;;;3.50;99.90;;;;;;5029167;28;20263;-71
2023/11/30 00:07:11;;;;;;;9.17;6.07;;;3.50;99.90;;;;;;5044718;28;20224;-70
2023/11/30 00:09:37;;;;;;;8.30;5.33;;;3.50;99.90;;;;;;5065183;28;20218;-71
2023/11/30 00:12:04;;;;;;;10.30;6.03;;;3.50;99.90;;;;;;5045725;28;20982;-71
2023/11/30 00:14:30;;;;;;;7.47;5.13;;;3.50;99.90;;;;;;5039776;28;20459;-71
2023/11/30 00:16:55;;;;;;;13.37;6.00;;;3.50;99.90;;;;;;5032619;28;20446;-70
2023/11/30 00:19:21;;;;;;;9.10;6.07;;;3.50;99.90;;;;;;5035271;28;20751;-71
2023/11/30 00:21:47;;;;;;;9.80;6.10;;;3.50;99.90;;;;;;5051060;28;20239;-71
2023/11/30 00:24:12;;;;;;;11.80;6.20;;;3.50;99.90;;;;;;5026287;28;20222;-71
2023/11/30 00:26:38;;;;;;;9.30;6.00;;;3.50;99.90;;;;;;5029473;28;20211;-71
2023/11/30 00:29:04;;;;;;;10.53;6.40;;;3.60;99.90;;;;;;5050476;28;20207;-71
2023/11/30 00:31:29;;;;;;;9.23;6.47;;;3.60;99.90;;;;;;5046526;28;20292;-72
2023/11/30 00:33:55;;;;;;;9.50;6.40;;;3.60;99.90;;;;;;5035634;28;20239;-70
2023/11/30 00:36:21;;;;;;;10.13;6.07;;;3.50;99.90;;;;;;5049685;28;20249;-71
2023/11/30 00:38:46;;;;;;;9.87;6.17;;;3.50;99.90;;;;;;5031512;28;20212;-71
2023/11/30 00:41:16;;;;;;;9.03;4.93;;;3.50;99.90;;;;;;5050021;28;20220;-71
2023/11/30 00:43:42;;;;;;;8.00;5.97;;;3.50;99.90;;;;;;5047966;28;20273;-71
2023/11/30 00:46:12;;;;;;;14.90;6.70;;;3.50;99.90;;;;;;5068090;28;20452;-71
2023/11/30 00:48:38;;;;;;;12.43;7.13;;;3.60;99.90;;;;;;5042160;28;20451;-71
2023/11/30 00:51:03;;;;;;;12.50;7.27;;;3.60;99.90;;;;;;5051336;28;20448;-71
2023/11/30 00:53:29;;;;;;;11.87;7.03;;;3.60;99.90;;;;;;5050431;28;20281;-72
2023/11/30 00:55:55;;;;;;;15.63;7.43;;;3.60;99.90;;;;;;5048517;28;20220;-71
2023/11/30 00:58:20;;;;;;;12.67;7.20;;;3.60;99.90;;;;;;5032788;28;20226;-71
2023/11/30 01:00:47;;;;;;;10.30;6.00;;;3.60;99.90;;;;;;5048604;28;20232;-72
2023/11/30 01:03:13;;;;;;;11.77;6.33;;;3.60;99.90;;;;;;5044081;28;20493;-71
2023/11/30 01:05:38;;;;;;;12.90;6.30;;;3.50;99.90;;;;;;5048119;28;20628;-70
2023/11/30 01:08:04;;;;;;;9.57;5.40;;;3.50;99.90;;;;;;5033602;28;20223;-71
2023/11/30 01:10:30;;;;;;;9.97;5.90;;;3.60;99.90;;;;;;5052459;28;20215;-71
2023/11/30 01:12:56;;;;;;;10.33;6.87;;;3.60;99.90;;;;;;5036540;28;20215;-71
2023/11/30 01:15:22;;;;;;;10.80;6.13;;;3.60;99.90;;;;;;5048426;28;20493;-72
2023/11/30 01:17:48;;;;;;;7.50;5.33;;;3.60;99.90;;;;;;5066279;28;20478;-74
2023/11/30 01:20:13;;;;;;;10.97;6.23;;;3.60;99.90;;;;;;5051079;28;20220;-74
2023/11/30 01:22:39;;;;;;;9.90;6.67;;;3.60;99.90;;;;;;5032866;28;20235;-73
2023/11/30 01:25:07;;;;;;;10.13;6.37;;;3.60;99.90;;;;;;5050111;28;20921;-74
2023/11/30 01:27:32;;;;;;;8.97;5.67;;;3.60;99.90;;;;;;5048329;28;20215;-73
2023/11/30 01:29:58;;;;;;;10.13;6.13;;;3.60;99.90;;;;;;5033020;28;20478;-75
2023/11/30 01:32:24;;;;;;;8.20;5.73;;;3.60;99.90;;;;;;5065940;28;20211;-74
2023/11/30 01:34:50;;;;;;;10.07;6.43;;;3.60;99.90;;;;;;5048278;28;20526;-74
2023/11/30 01:37:16;;;;;;;8.30;5.60;;;3.60;99.90;;;;;;5033416;28;20259;-75
2023/11/30 01:39:42;;;;;;;9.60;6.73;;;3.50;99.90;;;;;;5031598;28;20501;-74
2023/11/30 01:42:07;;;;;;;9.70;5.67;;;3.50;99.90;;;;;;5025816;28;20213;-74
2023/11/30 01:44:33;;;;;;;10.60;6.53;;;3.60;99.90;;;;;;5042790;28;20248;-74
2023/11/30 01:46:59;;;;;;;8.93;5.83;;;3.60;99.90;;;;;;5019656;28;20703;-74
2023/11/30 01:49:25;;;;;;;8.40;5.77;;;3.60;99.90;;;;;;5049361;28;20220;-74
2023/11/30 01:51:51;;;;;;;10.50;6.50;;;3.60;99.90;;;;;;5046142;28;20459;-74
2023/11/30 01:54:18;;;;;;;14.80;6.70;;;3.70;99.90;;;;;;5028412;28;20233;-75
2023/11/30 01:56:43;;;;;;;12.47;5.80;;;3.60;99.90;;;;;;5031062;28;20473;-73
2023/11/30 01:59:11;;;;;;;10.57;6.03;;;3.60;99.90;;;;;;5028647;28;20478;-73
2023/11/30 02:01:37;;;;;;;9.63;5.60;;;3.60;99.90;;;;;;5013347;28;20243;-75
2023/11/30 02:04:15;;;;;;;12.23;6.00;;;3.60;99.90;;;;;;5020184;28;20459;-74
2023/11/30 02:06:45;;;;;;;6.43;5.30;;;3.60;99.90;;;;;;5011469;28;20305;-74
2023/11/30 02:09:12;;;;;;;10.90;5.70;;;3.60;99.90;;;;;;5011649;28;20478;-74
2023/11/30 02:11:38;;;;;;;12.73;6.93;;;3.60;99.90;;;;;;5021775;28;20509;-75
2023/11/30 02:14:05;;;;;;;7.03;5.27;;;3.60;99.90;;;;;;5025786;28;20466;-74
2023/11/30 02:16:31;;;;;;;9.20;5.40;;;3.60;99.90;;;;;;5036513;28;20484;-74
2023/11/30 02:18:56;;;;;;;12.67;6.13;;;3.60;99.90;;;;;;5022030;28;20459;-73
2023/11/30 02:21:23;;;;;;;9.00;5.77;;;3.60;99.90;;;;;;5046459;28;20450;-73
2023/11/30 02:23:49;;;;;;;11.37;5.83;;;3.60;99.90;;;;;;5022802;28;20251;-73
2023/11/30 02:26:16;;;;;;;9.87;6.43;;;3.60;99.90;;;;;;5040000;28;20455;-73
2023/11/30 02:28:42;;;;;;;11.43;6.33;;;3.50;99.90;;;;;;5067677;28;20458;-74
2023/11/30 02:31:08;;;;;;;10.30;6.40;;;3.50;99.90;;;;;;5030208;28;20564;-74
2023/11/30 02:33:33;;;;;;;12.43;6.87;;;3.50;99.90;;;;;;5051033;28;20537;-74
2023/11/30 02:36:00;;;;;;;14.07;7.43;;;3.40;99.90;;;;;;5032394;28;20219;-74
2023/11/30 02:38:25;;;;;;;10.67;5.83;;;3.50;99.90;;;;;;5030779;28;20493;-74
2023/11/30 02:40:51;;;;;;;10.37;6.37;;;3.40;99.90;;;;;;5047251;28;20307;-74
2023/11/30 02:43:17;;;;;;;13.90;7.20;;;3.40;99.90;;;;;;5051392;28;20231;-74
2023/11/30 02:45:43;;;;;;;13.77;6.90;;;3.30;99.90;;;;;;5032751;28;20223;-75
2023/11/30 02:48:08;;;;;;;10.50;6.30;;;3.40;99.90;;;;;;5031376;28;20249;-74
2023/11/30 02:50:34;;;;;;;14.00;7.13;;;3.40;99.90;;;;;;5027617;28;20456;-73
2023/11/30 02:53:00;;;;;;;11.60;6.90;;;3.30;99.90;;;;;;5038013;28;20339;-73
2023/11/30 02:55:25;;;;;;;14.00;7.93;;;3.40;99.90;;;;;;5045369;28;20267;-74
2023/11/30 02:57:51;;;;;;;9.67;5.83;;;3.40;99.90;;;;;;5015187;28;20291;-74
2023/11/30 03:00:17;;;;;;;12.27;7.17;;;3.40;99.90;;;;;;5045240;28;20232;-74
2023/11/30 03:02:43;;;;;;;10.10;6.50;;;3.40;99.90;;;;;;5028466;28;20299;-74
2023/11/30 03:05:08;;;;;;;11.77;6.10;;;3.40;99.90;;;;;;5035581;28;20932;-74
2023/11/30 03:07:34;;;;;;;12.37;5.83;;;3.50;99.90;;;;;;5029096;28;20223;-74
2023/11/30 03:09:59;;;;;;;10.73;5.40;;;3.50;99.90;;;;;;5021856;28;20208;-74
2023/11/30 03:12:25;;;;;;;12.57;7.07;;;3.50;99.90;;;;;;5040796;28;20220;-74
2023/11/30 03:14:51;;;;;;;10.73;6.37;;;3.50;99.90;;;;;;5024801;28;20602;-73
2023/11/30 03:17:16;;;;;;;12.67;7.10;;;3.50;99.90;;;;;;5028229;28;21196;-74
2023/11/30 03:19:43;;;;;;;13.80;7.37;;;3.50;99.90;;;;;;5065477;28;20685;-74
2023/11/30 03:22:09;;;;;;;10.40;6.40;;;3.50;99.90;;;;;;5049703;28;20216;-74
2023/11/30 03:24:35;;;;;;;10.70;6.67;;;3.60;99.90;;;;;;5046437;28;20455;-73
2023/11/30 03:27:01;;;;;;;10.67;6.37;;;3.60;99.90;;;;;;5021013;28;20467;-73
2023/11/30 03:29:26;;;;;;;9.70;6.00;;;3.50;99.90;;;;;;5027537;28;20318;-74
2023/11/30 03:31:52;;;;;;;12.90;6.40;;;3.50;99.90;;;;;;5058533;28;20213;-73
2023/11/30 03:34:18;;;;;;;9.60;6.53;;;3.60;99.90;;;;;;5025941;28;20629;-74
2023/11/30 03:36:44;;;;;;;11.07;5.60;;;3.50;99.90;;;;;;5040975;28;20470;-73
2023/11/30 03:39:09;;;;;;;13.00;5.90;;;3.50;99.90;;;;;;5057438;28;20216;-74
2023/11/30 03:41:35;;;;;;;14.10;6.10;;;3.60;99.90;;;;;;5042623;28;20224;-74
2023/11/30 03:44:01;;;;;;;9.47;6.97;;;3.60;99.90;;;;;;5040143;28;20698;-74
2023/11/30 03:46:27;;;;;;;9.70;6.00;;;3.60;99.90;;;;;;5026298;28;20217;-75
2023/11/30 03:48:54;;;;;;;9.17;6.27;;;3.60;99.90;;;;;;5027981;28;20227;-74
2023/11/30 03:51:20;;;;;;;12.80;6.70;;;3.60;99.90;;;;;;5027467;28;20469;-74
2023/11/30 03:53:46;;;;;;;10.57;6.10;;;3.60;99.90;;;;;;5044090;28;20998;-74
2023/11/30 03:56:12;;;;;;;9.43;5.50;;;3.60;99.90;;;;;;5055558;28;20547;-74
2023/11/30 03:58:38;;;;;;;10.73;6.73;;;3.60;99.90;;;;;;5024837;28;20303;-74
2023/11/30 04:01:05;;;;;;;9.73;6.63;;;3.60;99.90;;;;;;5035716;28;20893;-74
2023/11/30 04:03:31;;;;;;;11.50;6.47;;;3.60;99.90;;;;;;5011201;28;20327;-74
2023/11/30 04:05:57;;;;;;;11.80;7.20;;;3.50;99.90;;;;;;5020311;28;20563;-75
2023/11/30 04:08:22;;;;;;;10.80;6.93;;;3.50;99.90;;;;;;5022761;28;20319;-74
2023/11/30 04:10:48;;;;;;;11.03;6.30;;;3.60;99.90;;;;;;5030292;28;20280;-74
2023/11/30 04:13:13;;;;;;;8.13;5.00;;;3.50;99.90;;;;;;5027098;28;20220;-74
2023/11/30 04:15:41;;;;;;;9.47;6.57;;;3.50;99.90;;;;;;5040555;28;20255;-75
2023/11/30 04:18:06;;;;;;;15.63;6.93;;;3.60;99.90;;;;;;5042789;28;20452;-74
2023/11/30 04:20:32;;;;;;;12.97;7.60;;;3.50;99.90;;;;;;5030289;28;20270;-74
2023/11/30 04:22:58;;;;;;;11.40;6.80;;;3.50;99.90;;;;;;5028864;28;20224;-74
2023/11/30 04:25:23;;;;;;;9.20;6.40;;;3.50;99.90;;;;;;5009569;28;20220;-74
2023/11/30 04:27:49;;;;;;;11.43;6.70;;;3.50;99.90;;;;;;5023468;28;20219;-74
2023/11/30 04:30:15;;;;;;;10.23;6.03;;;3.50;99.90;;;;;;5058317;28;20277;-74
2023/11/30 04:32:40;;;;;;;11.70;6.97;;;3.50;99.90;;;;;;5030717;28;20219;-74
2023/11/30 04:35:06;;;;;;;12.07;7.13;;;3.50;99.90;;;;;;5009909;28;20275;-74
2023/11/30 04:37:32;;;;;;;10.17;6.80;;;3.50;99.90;;;;;;5008630;28;20224;-74
2023/11/30 04:39:58;;;;;;;16.73;6.93;;;3.50;99.90;;;;;;5022181;28;20458;-74
2023/11/30 04:42:23;;;;;;;18.43;7.40;;;3.50;99.90;;;;;;5036414;28;20221;-75
2023/11/30 04:44:49;;;;;;;12.97;8.43;;;3.60;99.90;;;;;;5020610;28;20223;-74
2023/11/30 04:47:15;;;;;;;12.07;6.40;;;3.60;99.90;;;;;;5032165;28;20212;-74
2023/11/30 04:49:41;;;;;;;19.20;7.90;;;3.60;99.90;;;;;;5029653;28;20625;-75
2023/11/30 04:52:06;;;;;;;12.27;6.43;;;3.50;99.90;;;;;;5043292;28;20597;-74
2023/11/30 04:54:32;;;;;;;12.50;7.43;;;3.60;99.90;;;;;;5008654;28;20225;-74
2023/11/30 04:56:59;;;;;;;13.23;7.63;;;3.60;99.90;;;;;;5034609;28;20686;-75
2023/11/30 04:59:24;;;;;;;16.47;8.20;;;3.60;99.90;;;;;;5016782;28;20976;-74
2023/11/30 05:01:50;;;;;;;14.30;7.67;;;3.60;99.90;;;;;;5029612;28;20562;-75
2023/11/30 05:04:15;;;;;;;11.80;6.27;;;3.60;99.90;;;;;;5057097;28;20301;-75
2023/11/30 05:06:41;;;;;;;10.83;6.97;;;3.60;99.90;;;;;;5069513;28;20239;-74
2023/11/30 05:09:07;;;;;;;12.37;7.47;;;3.60;99.90;;;;;;5055241;28;20236;-75
2023/11/30 05:11:32;;;;;;;11.73;7.13;;;3.60;99.90;;;;;;5066994;28;20298;-74
2023/11/30 05:13:58;;;;;;;14.20;7.50;;;3.60;99.90;;;;;;5045317;28;20244;-73
2023/11/30 05:16:24;;;;;;;12.37;6.83;;;3.60;99.90;;;;;;5066344;28;20220;-74
2023/11/30 05:18:50;;;;;;;20.40;8.30;;;3.60;99.90;;;;;;5042111;28;20535;-74
2023/11/30 05:21:16;;;;;;;14.87;8.80;;;3.60;99.90;;;;;;5066558;28;20544;-74
2023/11/30 05:23:41;;;;;;;12.30;8.20;;;3.60;99.90;;;;;;5064702;28;20247;-74
2023/11/30 05:26:07;;;;;;;17.03;9.47;;;3.60;99.90;;;;;;5047866;28;20548;-74
2023/11/30 05:28:33;;;;;;;14.70;8.60;;;3.60;99.90;;;;;;5072869;28;20216;-75
2023/11/30 05:30:59;;;;;;;15.30;8.20;;;3.60;99.90;;;;;;5060194;28;20224;-74
2023/11/30 05:33:29;;;;;;;14.53;7.97;;;3.60;99.90;;;;;;5048709;28;20239;-74
2023/11/30 05:35:55;;;;;;;16.00;9.30;;;3.60;99.90;;;;;;5066482;28;20219;-74
2023/11/30 05:38:21;;;;;;;17.00;9.67;;;3.60;99.90;;;;;;5051573;28;20450;-74
2023/11/30 05:40:47;;;;;;;17.53;8.93;;;3.60;99.90;;;;;;5052009;28;20719;-75
2023/11/30 05:43:12;;;;;;;15.43;9.37;;;3.60;99.90;;;;;;5068569;28;20212;-75
2023/11/30 05:45:39;;;;;;;16.83;9.40;;;3.60;99.90;;;;;;5055620;28;20227;-74
2023/11/30 05:48:05;;;;;;;13.03;8.63;;;3.60;99.90;;;;;;5052502;28;20231;-73
2023/11/30 05:50:31;;;;;;;12.30;8.17;;;3.60;99.90;;;;;;5067832;28;20458;-75
2023/11/30 05:52:56;;;;;;;20.23;9.13;;;3.60;99.90;;;;;;5050826;28;20520;-73
2023/11/30 05:55:22;;;;;;;20.80;11.37;;;3.60;99.90;;;;;;5065069;28;20233;-73
2023/11/30 05:57:48;;;;;;;22.13;11.60;;;3.60;99.90;;;;;;5056702;28;20306;-74
2023/11/30 06:00:15;;;;;;;20.67;11.80;;;3.60;99.90;;;;;;5048721;28;20216;-74
2023/11/30 06:02:41;;;;;;;18.50;9.97;;;3.60;99.90;;;;;;5052404;28;20222;-73
2023/11/30 06:05:07;;;;;;;16.43;9.67;;;3.60;99.90;;;;;;5057534;28;20488;-73
2023/11/30 06:07:33;;;;;;;18.10;10.80;;;3.60;99.90;;;;;;5032574;28;20286;-74
2023/11/30 06:09:59;;;;;;;17.63;9.33;;;3.60;99.90;;;;;;5069817;28;20470;-74
2023/11/30 06:12:25;;;;;;;18.30;10.20;;;3.60;99.90;;;;;;5023555;28;20469;-74
2023/11/30 06:14:51;;;;;;;15.30;9.53;;;3.60;99.90;;;;;;5064133;28;20520;-73
2023/11/30 06:17:17;;;;;;;18.27;9.00;;;3.60;99.90;;;;;;5046883;28;20885;-74
2023/11/30 06:19:43;;;;;;;14.87;8.90;;;3.60;99.90;;;;;;5049202;28;20295;-75
2023/11/30 06:22:09;;;;;;;21.00;10.80;;;3.60;99.90;;;;;;5063567;28;20247;-74
2023/11/30 06:24:35;;;;;;;23.53;12.63;;;3.60;99.90;;;;;;5046165;28;20473;-74
2023/11/30 06:27:02;;;;;;;19.30;10.83;;;3.70;99.90;;;;;;5040054;28;20239;-74
2023/11/30 06:29:29;;;;;;;20.53;10.20;;;3.60;99.90;;;;;;5068604;28;20481;-75
2023/11/30 06:32:01;;;;;;;26.33;12.73;;;3.60;99.90;;;;;;5044303;28;20485;-74
2023/11/30 06:34:28;;;;;;;22.10;9.77;;;3.70;99.90;;;;;;5061038;28;20466;-74
2023/11/30 06:36:54;;;;;;;19.00;9.80;;;3.70;99.90;;;;;;5032577;28;20466;-74
2023/11/30 06:39:20;;;;;;;19.30;9.97;;;3.70;99.90;;;;;;5041025;28;20445;-75
2023/11/30 06:41:48;;;;;;;22.97;10.47;;;3.70;99.90;;;;;;5029070;28;20491;-74
2023/11/30 06:44:14;;;;;;;17.80;9.47;;;3.70;99.90;;;;;;5032593;28;20216;-75
2023/11/30 06:46:42;;;;;;;22.27;9.93;;;3.70;99.90;;;;;;5043014;28;20490;-74
2023/11/30 06:49:10;;;;;;;17.80;9.40;;;3.70;99.90;;;;;;5020364;28;20306;-74
2023/11/30 06:51:36;;;;;;;16.80;10.00;;;3.70;99.90;;;;;;5024040;28;21011;-75
2023/11/30 06:54:02;;;;;;;15.30;9.40;;;3.70;99.90;;;;;;5047372;28;20466;-74
2023/11/30 06:56:28;;;;;;;18.87;9.67;;;3.70;99.90;;;;;;5070205;28;20384;-75
2023/11/30 06:58:54;;;;;;;21.53;10.60;;;3.70;99.90;;;;;;5046999;28;20992;-75
2023/11/30 07:01:26;;;;;;;18.13;9.73;;;3.70;99.90;;;;;;5048524;28;20697;-74
2023/11/30 07:03:52;;;;;;;16.23;8.33;;;3.70;99.90;;;;;;5067816;28;20216;-75
2023/11/30 07:06:19;;;;;;;25.33;12.90;;;3.70;99.90;;;;;;5064621;28;20620;-74
2023/11/30 07:08:45;;;;;;;19.90;10.93;;;3.80;99.90;;;;;;5032722;28;20534;-75
2023/11/30 07:11:11;;;;;;;18.07;9.97;;;3.80;99.90;;;;;;5045618;28;20549;-74
2023/11/30 07:13:37;;;;;;;18.93;9.10;;;3.80;99.90;;;;;;5066548;28;20216;-74
2023/11/30 07:16:03;;;;;;;24.03;11.43;;;3.80;99.90;;;;;;5041940;28;20489;-73
2023/11/30 07:18:29;;;;;;;17.47;10.43;;;3.80;99.90;;;;;;5048628;28;20227;-74
2023/11/30 07:20:56;;;;;;;21.30;11.03;;;3.80;99.90;;;;;;5047254;28;20548;-74
2023/11/30 07:23:21;;;;;;;21.03;10.97;;;3.80;99.90;;;;;;5066266;28;20446;-74
2023/11/30 07:25:47;;;;;;;16.40;10.10;;;3.80;99.90;;;;;;5065687;28;20481;-74
2023/11/30 07:28:12;;;;;;;20.27;10.90;;;3.80;99.90;;;;;;5031714;28;20220;-73
2023/11/30 07:30:41;;;;;;;16.23;9.17;;;3.80;99.90;;;;;;5048878;28;20238;-75
2023/11/30 07:33:10;;;;;;;19.87;9.43;;;3.80;99.90;;;;;;5063094;28;20227;-76
2023/11/30 07:35:37;;;;;;;15.93;9.50;;;3.80;99.90;;;;;;5027155;28;20460;-75
2023/11/30 07:38:03;;;;;;;17.80;10.83;;;3.80;99.90;;;;;;5025366;28;20473;-73
2023/11/30 07:40:32;;;;;;;23.40;12.13;;;3.80;99.90;;;;;;5026719;28;20461;-75
2023/11/30 07:42:58;;;;;;;21.37;11.57;;;3.80;99.90;;;;;;5046004;28;20469;-75
2023/11/30 07:45:24;;;;;;;19.50;11.83;;;3.80;99.90;;;;;;5061558;28;20447;-73
2023/11/30 07:47:50;;;;;;;17.87;10.60;;;3.80;99.90;;;;;;5023061;28;20460;-74
2023/11/30 07:50:15;;;;;;;22.43;11.10;;;3.80;99.90;;;;;;5047183;28;20226;-74
2023/11/30 07:52:42;;;;;;;18.13;11.20;;;3.80;99.90;;;;;;5066667;28;20309;-74
2023/11/30 07:55:08;;;;;;;20.70;11.10;;;3.80;99.90;;;;;;5043224;28;20765;-75
2023/11/30 07:57:34;;;;;;;19.53;10.73;;;3.80;99.90;;;;;;5030285;28;20529;-75
2023/11/30 08:00:02;;;;;;;17.50;10.13;;;3.80;99.90;;;;;;5032612;28;20239;-75
2023/11/30 08:02:29;;;;;;;18.17;10.00;;;3.80;99.90;;;;;;5042848;28;20208;-75
2023/11/30 08:04:55;;;;;;;19.70;10.73;;;3.80;99.90;;;;;;5026618;28;20461;-75
2023/11/30 08:07:21;;;;;;;22.50;11.13;;;3.80;99.90;;;;;;5047156;28;20299;-74
2023/11/30 08:09:46;;;;;;;20.37;11.50;;;3.80;99.90;;;;;;5048335;28;20270;-73
2023/11/30 08:12:12;;;;;;;19.60;11.20;;;3.80;99.90;;;;;;5044924;28;20697;-74
2023/11/30 08:14:38;;;;;;;19.60;11.03;;;3.80;99.90;;;;;;5045405;28;20307;-74
2023/11/30 08:17:05;;;;;;;19.57;11.10;;;3.80;99.90;;;;;;5046688;28;20776;-72
2023/11/30 08:19:32;;;;;;;21.73;9.87;;;3.80;99.90;;;;;;5046540;28;20235;-74
2023/11/30 08:21:58;;;;;;;21.60;11.00;;;3.80;99.90;;;;;;5020978;28;20455;-74
2023/11/30 08:24:24;;;;;;;17.13;10.43;;;3.80;99.90;;;;;;5024201;28;20461;-74
2023/11/30 08:26:50;;;;;;;24.97;11.47;;;3.80;99.90;;;;;;5054311;28;20209;-74
2023/11/30 08:29:15;;;;;;;25.00;12.37;;;3.80;99.90;;;;;;5019990;28;20224;-73
2023/11/30 08:31:42;;;;;;;23.50;11.37;;;3.80;99.90;;;;;;5038135;28;20458;-75
2023/11/30 08:34:08;;;;;;;21.67;10.67;;;3.80;99.90;;;;;;5008493;28;20229;-75
2023/11/30 08:36:34;;;;;;;21.60;11.20;;;3.80;99.90;;;;;;5041609;28;20475;-73
2023/11/30 08:39:03;;;;;;;22.33;11.80;;;3.80;99.90;;;;;;5037774;28;20898;-74
2023/11/30 08:41:31;;;;;;;19.73;10.07;;;3.80;99.90;;;;;;5023452;28;20557;-75
2023/11/30 08:43:57;;;;;;;21.20;11.37;;;3.70;99.90;;;;;;5042220;28;20459;-74
2023/11/30 08:46:23;;;;;;;17.40;10.73;;;3.70;99.90;;;;;;5036519;28;20441;-74
2023/11/30 08:48:48;;;;;;;21.63;12.37;;;3.70;99.90;;;;;;5029060;28;20236;-75
2023/11/30 08:51:15;;;;;;;19.90;9.93;;;3.70;99.90;;;;;;5041532;28;20222;-74
2023/11/30 08:53:41;;;;;;;20.77;10.43;;;3.80;99.90;;;;;;5021683;28;20221;-75
2023/11/30 08:56:07;;;;;;;22.37;11.43;;;3.80;99.90;;;;;;5029645;28;20463;-73
2023/11/30 08:58:33;;;;;;;19.20;10.73;;;3.80;99.90;;;;;;5024482;28;20244;-73
2023/11/30 09:00:59;;;;;;;25.80;12.03;;;3.90;99.90;;;;;;5009972;28;20985;-72
2023/11/30 09:03:24;;;;;;;23.60;10.83;;;3.80;99.90;;;;;;5024265;28;20239;-74
2023/11/30 09:05:50;;;;;;;25.80;12.43;;;3.80;99.90;;;;;;5040392;28;20213;-74
2023/11/30 09:08:16;;;;;;;25.03;13.70;;;3.80;99.90;;;;;;5045105;28;20224;-73
2023/11/30 09:10:42;;;;;;;20.83;12.03;;;3.80;99.90;;;;;;5023525;28;20223;-73
2023/11/30 09:13:07;;;;;;;21.23;11.93;;;3.90;99.90;;;;;;5058852;28;20219;-73
2023/11/30 09:15:34;;;;;;;20.53;11.53;;;3.90;99.90;;;;;;5012434;28;20313;-74
2023/11/30 09:18:01;;;;;;;22.70;10.30;;;3.90;99.90;;;;;;5017727;28;20706;-74
2023/11/30 09:20:27;;;;;;;24.30;10.77;;;3.90;99.90;;;;;;5028970;28;20484;-73
2023/11/30 09:22:53;;;;;;;22.37;12.47;;;3.90;99.90;;;;;;5049063;28;20547;-73
2023/11/30 09:25:19;;;;;;;18.90;11.47;;;3.90;99.90;;;;;;5034952;28;20498;-73
2023/11/30 09:27:45;;;;;;;25.70;13.20;;;3.90;99.90;;;;;;5047684;28;20212;-74
2023/11/30 09:30:14;;;;;;;20.93;11.47;;;3.90;99.90;;;;;;5047922;28;20474;-75
2023/11/30 09:32:40;;;;;;;20.13;10.97;;;3.90;99.90;;;;;;5045659;28;20229;-74
2023/11/30 09:35:06;;;;;;;22.90;10.93;;;3.90;99.90;;;;;;5029461;28;20489;-73
2023/11/30 09:37:34;;;;;;;19.23;11.30;;;3.90;99.90;;;;;;5049195;28;20585;-75
2023/11/30 09:40:08;;;;;;;23.70;10.67;;;3.90;99.90;;;;;;5032939;28;20446;-75
2023/11/30 09:42:37;;;;;;;20.37;10.77;;;3.90;99.90;;;;;;5035475;28;20979;-75
2023/11/30 09:45:07;;;;;;;21.00;11.13;;;3.90;99.90;;;;;;5046356;28;20545;-73
2023/11/30 09:47:34;;;;;;;18.87;9.50;;;3.90;99.90;;;;;;5044310;28;20449;-74
2023/11/30 09:50:00;;;;;;;23.80;11.10;;;4.00;99.90;;;;;;5043600;28;20454;-74
2023/11/30 09:52:28;;;;;;;23.23;13.30;;;4.00;99.90;;;;;;5031344;28;20509;-74
2023/11/30 09:54:56;;;;;;;21.50;12.40;;;4.00;99.90;;;;;;5042637;28;20505;-74
2023/11/30 09:57:23;;;;;;;22.37;11.13;;;3.90;99.90;;;;;;5041505;28;20446;-74
2023/11/30 09:59:52;;;;;;;23.17;11.20;;;3.90;99.90;;;;;;5029017;28;20466;-74
2023/11/30 10:02:19;;;;;;;19.33;11.93;;;4.00;99.90;;;;;;5043584;28;20457;-73
2023/11/30 10:04:48;;;;;;;26.00;11.70;;;4.00;99.90;;;;;;5046211;28;20458;-74
2023/11/30 10:07:15;;;;;;;21.10;10.10;;;4.00;99.90;;;;;;5049422;28;20545;-73
2023/11/30 10:09:42;;;;;;;17.03;9.37;;;4.00;99.90;;;;;;5037227;28;20449;-73
2023/11/30 10:12:08;;;;;;;22.57;10.60;;;4.00;99.90;;;;;;5026641;28;20456;-74
2023/11/30 10:14:33;;;;;;;20.30;9.90;;;4.10;99.90;;;;;;5024165;28;21080;-72
2023/11/30 10:17:00;;;;;;;21.97;11.40;;;4.10;99.90;;;;;;5034746;28;20540;-75
2023/11/30 10:19:26;;;;;;;22.83;10.13;;;4.00;99.90;;;;;;5006320;28;20683;-74
2023/11/30 10:21:55;;;;;;;23.30;12.30;;;4.00;99.90;;;;;;5066453;28;20461;-74
2023/11/30 10:24:23;;;;;;;25.30;10.70;;;4.10;99.90;;;;;;5049137;28;20453;-73
2023/11/30 10:26:51;;;;;;;28.17;11.73;;;4.10;99.90;;;;;;5048762;28;20446;-74
2023/11/30 10:29:20;;;;;;;23.00;11.97;;;4.10;99.90;;;;;;5012109;28;20465;-74
2023/11/30 10:31:49;;;;;;;21.07;11.47;;;4.10;99.90;;;;;;5043551;28;20440;-74
2023/11/30 10:34:18;;;;;;;23.47;11.57;;;4.10;99.90;;;;;;5038668;28;20503;-74
2023/11/30 10:36:44;;;;;;;20.20;10.97;;;4.10;99.90;;;;;;5030080;28;20439;-74
2023/11/30 10:39:16;;;;;;;19.60;10.33;;;4.10;99.90;;;;;;5068805;28;20526;-74
2023/11/30 10:41:52;;;;;;;21.27;12.00;;;4.10;99.90;;;;;;5033111;28;20508;-74
2023/11/30 10:44:33;;;;;;;18.90;9.27;;;4.20;99.90;;;;;;5045884;28;20600;-74
2023/11/30 10:47:00;;;;;;;23.07;11.53;;;4.10;99.90;;;;;;5054259;28;20510;-74
2023/11/30 10:49:28;;;;;;;21.80;11.70;;;4.10;99.90;;;;;;5043100;28;20462;-73
2023/11/30 10:52:00;;;;;;;21.73;10.40;;;4.10;99.90;;;;;;5041696;28;20485;-73
2023/11/30 10:54:32;;;;;;;22.57;12.23;;;4.20;99.90;;;;;;5047515;28;20521;-74
2023/11/30 10:57:00;;;;;;;19.67;11.00;;;4.20;99.90;;;;;;5047137;28;20461;-72
2023/11/30 10:59:28;;;;;;;21.27;11.43;;;4.10;99.90;;;;;;5018460;28;20454;-74
2023/11/30 11:01:56;;;;;;;24.33;11.57;;;4.20;99.90;;;;;;5041992;28;20455;-73
2023/11/30 11:04:28;;;;;;;21.77;12.97;;;4.20;99.90;;;;;;5030121;28;20481;-73
2023/11/30 11:07:06;;;;;;;21.67;12.10;;;4.20;99.90;;;;;;5068197;28;20460;-74
2023/11/30 11:09:43;;;;;;;21.80;11.37;;;4.10;99.90;;;;;;5067977;28;20455;-73
2023/11/30 11:12:25;;;;;;;15.63;10.10;;;4.10;99.90;;;;;;5045066;28;20510;-75
2023/11/30 11:15:08;;;;;;;23.53;10.87;;;4.20;99.90;;;;;;5045191;28;20702;-74
2023/11/30 11:17:47;;;;;;;19.80;10.37;;;4.20;99.90;;;;;;5032201;28;20503;-74
2023/11/30 11:20:20;;;;;;;17.40;10.43;;;4.20;99.90;;;;;;5043557;28;20447;-73
2023/11/30 11:22:46;;;;;;;17.43;9.23;;;4.20;99.90;;;;;;5067050;28;20457;-74
2023/11/30 11:25:14;;;;;;;19.90;9.83;;;4.20;99.90;;;;;;5023482;28;20469;-75
2023/11/30 11:27:40;;;;;;;20.70;9.87;;;4.20;99.90;;;;;;5046121;28;20454;-75
2023/11/30 11:30:08;;;;;;;20.57;9.33;;;4.20;99.90;;;;;;5049458;28;20454;-74
2023/11/30 11:32:35;;;;;;;20.63;11.23;;;4.20;99.90;;;;;;5025310;28;20508;-75
2023/11/30 11:35:03;;;;;;;23.87;11.33;;;4.20;99.90;;;;;;5045137;28;20479;-74
2023/11/30 11:37:28;;;;;;;20.73;11.23;;;4.20;99.90;;;;;;5042111;28;20438;-74
2023/11/30 11:39:56;;;;;;;17.77;9.77;;;4.20;99.90;;;;;;5051974;28;20450;-74
2023/11/30 11:42:21;;;;;;;17.70;10.43;;;4.20;99.90;;;;;;5066855;28;20228;-74
2023/11/30 11:44:50;;;;;;;23.83;11.97;;;4.20;99.90;;;;;;5032010;28;20454;-74
2023/11/30 11:47:17;;;;;;;18.37;9.33;;;4.20;99.90;;;;;;5047838;28;20693;-74
2023/11/30 11:49:43;;;;;;;19.13;9.70;;;4.10;99.90;;;;;;5067150;28;20588;-74
2023/11/30 11:52:11;;;;;;;16.10;8.13;;;4.20;99.90;;;;;;5048985;28;20958;-74
2023/11/30 11:54:37;;;;;;;20.67;10.20;;;4.20;99.90;;;;;;5032620;28;20474;-74
2023/11/30 11:57:04;;;;;;;21.30;9.07;;;4.10;99.90;;;;;;5048912;28;20453;-74
2023/11/30 11:59:30;;;;;;;20.83;10.17;;;4.10;99.90;;;;;;5050444;28;20299;-74
2023/11/30 12:01:58;;;;;;;18.20;9.40;;;4.10;99.90;;;;;;5048051;28;20510;-75
2023/11/30 12:04:35;;;;;;;12.23;7.83;;;4.20;99.90;;;;;;5029826;28;20217;-74
2023/11/30 12:07:21;;;;;;;19.43;8.73;;;4.30;99.90;;;;;;5055872;28;20442;-75
2023/11/30 12:09:54;;;;;;;15.50;8.80;;;4.30;99.90;;;;;;5056355;28;20454;-75
2023/11/30 12:12:20;;;;;;;14.23;7.63;;;4.30;99.90;;;;;;5044034;28;20481;-74
2023/11/30 12:14:46;;;;;;;17.03;9.00;;;4.30;99.90;;;;;;5025668;28;20571;-74
2023/11/30 12:17:12;;;;;;;17.60;9.20;;;4.30;99.90;;;;;;5033407;28;20529;-74
2023/11/30 12:19:38;;;;;;;17.23;8.90;;;4.40;99.90;;;;;;5032703;28;20303;-74
2023/11/30 12:22:04;;;;;;;14.47;8.53;;;4.30;99.90;;;;;;5048252;28;20690;-74
2023/11/30 12:24:29;;;;;;;14.00;8.30;;;4.30;99.90;;;;;;5027800;28;20522;-74
2023/11/30 12:26:55;;;;;;;20.07;9.87;;;4.30;99.90;;;;;;5025135;28;20223;-73
2023/11/30 12:29:21;;;;;;;14.47;9.47;;;4.30;99.90;;;;;;5059325;28;20212;-74
2023/11/30 12:31:46;;;;;;;15.20;9.53;;;4.30;99.90;;;;;;5029580;28;20586;-73
2023/11/30 12:34:12;;;;;;;17.20;8.87;;;4.30;99.90;;;;;;5015035;28;20458;-73
2023/11/30 12:36:38;;;;;;;20.27;9.43;;;4.30;99.90;;;;;;5024700;28;20629;-73
2023/11/30 12:39:04;;;;;;;20.73;10.40;;;4.30;99.90;;;;;;5033211;28;20205;-74
2023/11/30 12:41:30;;;;;;;28.60;11.50;;;4.40;99.90;;;;;;5034574;28;20250;-74
2023/11/30 12:43:56;;;;;;;23.40;8.77;;;4.40;99.90;;;;;;5027718;28;20447;-74